CST,Max TemperatureF,Mean TemperatureF,Min TemperatureF,Max Dew PointF,MeanDew PointF,Min DewpointF,Max Humidity, Mean Humidity, Min Humidity, Max Sea Level PressureIn, Mean Sea Level PressureIn, Min Sea Level PressureIn, Max VisibilityMiles, Mean VisibilityMiles, Min VisibilityMiles, Max Wind SpeedMPH, Mean Wind SpeedMPH, Max Gust SpeedMPH,PrecipitationIn, CloudCover, Events, WindDirDegrees
2011-11-1,73,55,37,39,36,32,93,55,23,30.24,30.17,30.13,10,9,6,14,4,22,0.00,0,,182
2011-11-2,73,54,37,50,41,35,89,63,36,30.20,30.10,29.91,10,10,8,20,5,28,0.00,0,,173
2011-11-3,60,52,44,55,43,36,97,79,53,30.08,29.90,29.75,10,9,2,18,13,29,0.37,8,Rain,263
2011-11-4,53,50,48,45,44,43,83,78,71,30.26,30.20,30.10,10,10,8,14,9,23,0.00,8,,14
2011-11-5,62,50,37,46,42,36,100,86,56,30.24,30.17,30.07,10,4,0,7,1,,0.00,3,Fog,127
2011-11-6,63,56,51,50,44,38,83,65,49,30.22,30.16,30.09,10,10,10,12,7,21,0.00,6,,170
2011-11-7,70,65,60,57,54,51,83,71,63,30.23,30.15,30.07,10,10,7,14,6,20,0.00,6,,178
2011-11-8,72,66,59,63,59,51,100,85,64,30.06,29.94,29.80,10,6,2,16,7,22,2.20,8,Rain,260
2011-11-9,63,51,39,61,45,33,100,76,48,30.24,30.00,29.77,10,10,10,21,10,29,0.03,4,Rain,261
2011-11-10,55,44,32,32,26,18,85,58,24,30.28,30.23,30.17,10,10,10,18,5,32,0.00,0,,285
2011-11-11,64,46,28,40,34,26,92,62,41,30.19,30.05,29.95,10,10,7,17,5,24,0.00,0,,203
2011-11-12,62,52,42,50,44,34,74,67,62,30.03,29.94,29.81,10,10,10,22,11,30,0.00,2,,191
2011-11-13,73,65,57,61,57,50,78,73,64,29.80,29.73,29.66,10,10,10,32,17,45,0.00,6,,198
2011-11-14,78,68,55,65,62,52,97,79,57,29.86,29.74,29.65,10,8,1,25,16,38,1.10,6,Rain-Thunderstorm,217
2011-11-15,61,57,53,58,56,52,100,94,87,29.88,29.82,29.78,10,8,3,12,4,,1.51,8,Rain,160
2011-11-16,59,52,44,58,37,23,100,61,30,30.27,29.99,29.81,10,9,2,21,8,28,0.58,4,Rain,7
2011-11-17,52,43,33,31,23,14,85,50,22,30.40,30.35,30.26,10,10,10,12,6,18,0.00,1,,311
2011-11-18,54,42,30,31,28,25,92,63,33,30.35,30.22,30.09,10,10,10,16,5,24,0.00,0,,174
2011-11-19,64,54,44,58,46,31,96,71,58,30.07,30.01,29.92,10,10,9,20,10,29,0.01,8,Rain,185
2011-11-20,61,52,44,61,52,43,100,96,87,30.19,30.11,30.03,10,3,0,13,7,37,0.82,8,Fog-Rain-Thunderstorm,59
2011-11-21,53,50,46,52,47,44,100,94,88,30.19,30.11,30.02,10,6,1,12,4,,0.15,8,Rain-Thunderstorm,19
2011-11-22,60,55,50,57,50,45,100,92,74,30.11,29.89,29.77,10,7,2,16,7,23,1.49,8,Rain-Thunderstorm,349
2011-11-23,51,50,48,45,44,43,83,80,77,30.34,30.26,30.12,10,10,10,12,6,,0.00,8,,314
2011-11-24,51,48,43,44,43,42,97,84,77,30.38,30.32,30.25,10,9,4,9,6,,0.00,7,,193
2011-11-25,62,52,42,49,45,41,100,89,60,30.24,30.17,30.03,10,5,0,17,5,18,0.01,4,Fog,189
2011-11-26,66,57,46,61,55,42,100,87,72,30.03,29.91,29.84,10,7,0,20,7,25,1.17,8,Fog-Rain,195
2011-11-27,46,42,39,43,37,32,93,82,70,30.13,30.02,29.92,10,9,3,16,12,22,0.15,8,Rain,340
2011-11-28,41,37,33,33,32,30,96,87,73,30.07,29.87,29.76,10,5,1,18,11,26,0.65,8,Rain-Snow,314
2011-11-29,43,36,30,32,31,27,96,83,65,30.16,29.90,29.74,10,8,2,20,9,28,0.42,6,Rain-Snow,323
2011-11-30,42,35,28,28,24,20,89,68,49,30.25,30.20,30.14,10,10,10,7,5,,0.00,0,,277